createdAt,value
2022-07-28T00:01:05.774Z,102116.25
2022-07-28T00:03:33.935Z,102118.00
2022-07-28T00:06:02.108Z,102119.72
2022-07-28T00:08:32.252Z,102119.72
2022-07-28T00:11:00.375Z,102112.63
2022-07-28T00:13:29.871Z,102111.72
2022-07-28T00:15:58.037Z,102113.44
2022-07-28T00:18:26.257Z,102107.28
2022-07-28T00:20:54.426Z,102100.22
2022-07-28T00:23:22.546Z,102106.31
2022-07-28T00:25:50.796Z,102098.38
2022-07-28T00:28:18.990Z,102105.31
2022-07-28T00:30:48.508Z,102105.28
2022-07-28T00:33:16.695Z,102098.22
2022-07-28T00:35:48.440Z,102099.94
2022-07-28T00:38:16.930Z,102105.22
2022-07-28T00:41:02.762Z,102106.94
2022-07-28T00:43:31.019Z,102102.53
2022-07-28T00:46:00.576Z,102101.63
2022-07-28T00:48:28.775Z,102100.72
2022-07-28T00:50:57.070Z,102108.63
2022-07-28T00:53:25.485Z,102104.22
2022-07-28T00:56:02.995Z,102112.97
2022-07-28T00:58:35.491Z,102110.34
2022-07-28T01:01:06.242Z,102105.94
2022-07-28T01:03:36.267Z,102103.31
2022-07-28T01:06:16.455Z,102105.94
2022-07-28T01:08:57.868Z,102106.81
2022-07-28T01:11:42.929Z,102099.78
2022-07-28T01:14:18.093Z,102100.69
2022-07-28T01:16:55.956Z,102094.50
2022-07-28T01:19:38.320Z,102098.00
2022-07-28T01:22:11.254Z,102098.84
2022-07-28T01:24:56.061Z,102094.47
2022-07-28T01:27:54.836Z,102081.28
2022-07-28T01:30:36.535Z,102086.59
2022-07-28T01:33:11.397Z,102082.19
2022-07-28T01:35:46.466Z,102083.97
2022-07-28T01:38:15.761Z,102075.16
2022-07-28T01:40:50.346Z,102077.81
2022-07-28T01:43:25.286Z,102071.66
2022-07-28T01:45:57.157Z,102065.53
2022-07-28T01:48:26.509Z,102068.19
2022-07-28T01:50:56.953Z,102070.81
2022-07-28T01:53:27.302Z,102062.91
2022-07-28T01:55:58.516Z,102063.81
2022-07-28T01:58:29.203Z,102062.06
2022-07-28T02:01:00.510Z,102067.34
2022-07-28T02:03:30.817Z,102060.34
2022-07-28T02:06:02.641Z,102063.03
2022-07-28T02:08:33.198Z,102065.66
2022-07-28T02:11:19.336Z,102059.56
2022-07-28T02:13:49.415Z,102066.63
2022-07-28T02:16:22.677Z,102064.03
2022-07-28T02:18:53.620Z,102061.44
2022-07-28T02:21:23.145Z,102061.50
2022-07-28T02:23:54.668Z,102061.53
2022-07-28T02:26:29.955Z,102055.41
2022-07-28T02:29:01.851Z,102052.72
2022-07-28T02:31:39.338Z,102060.63
2022-07-28T02:34:12.359Z,102062.31
2022-07-28T02:36:48.470Z,102065.81
2022-07-28T02:39:25.045Z,102059.66
2022-07-28T02:42:00.023Z,102064.00
2022-07-28T02:44:32.938Z,102063.09
2022-07-28T02:47:07.057Z,102068.34
2022-07-28T02:49:37.381Z,102064.81
2022-07-28T02:52:07.869Z,102058.63
2022-07-28T02:54:37.433Z,102068.25
2022-07-28T02:57:07.871Z,102067.34
2022-07-28T02:59:37.685Z,102067.34
2022-07-28T03:02:09.400Z,102062.00
2022-07-28T03:04:55.790Z,102054.13
2022-07-28T03:07:24.262Z,102062.88
2022-07-28T03:09:52.786Z,102061.91
2022-07-28T03:12:21.105Z,102062.75
2022-07-28T03:14:49.483Z,102068.00
2022-07-28T03:17:19.729Z,102065.31
2022-07-28T03:19:47.981Z,102067.03
2022-07-28T03:22:16.670Z,102068.75
2022-07-28T03:24:49.010Z,102066.97
2022-07-28T03:27:25.548Z,102073.06
2022-07-28T03:30:03.645Z,102075.69
2022-07-28T03:32:36.730Z,102078.31
2022-07-28T03:35:05.624Z,102075.75
2022-07-28T03:37:39.082Z,102078.47
2022-07-28T03:40:12.001Z,102088.16
2022-07-28T03:42:42.131Z,102087.41
2022-07-28T03:45:11.576Z,102082.25
2022-07-28T03:47:50.259Z,102084.06
2022-07-28T03:50:18.679Z,102079.75
2022-07-28T03:52:46.806Z,102083.34
2022-07-28T03:55:16.766Z,102079.03
2022-07-28T03:57:44.942Z,102078.16
2022-07-28T04:00:16.044Z,102069.38
2022-07-28T04:02:46.524Z,102076.44
2022-07-28T04:05:19.931Z,102073.78
2022-07-28T04:07:48.365Z,102072.03
2022-07-28T04:10:19.117Z,102065.88
2022-07-28T04:12:52.089Z,102073.81
2022-07-28T04:15:20.910Z,102075.59
2022-07-28T04:17:51.873Z,102071.25
2022-07-28T04:20:22.414Z,102088.03
2022-07-28T04:22:51.624Z,102075.78
2022-07-28T04:25:22.015Z,102070.53
2022-07-28T04:27:50.891Z,102076.72
2022-07-28T04:30:21.306Z,102085.56
2022-07-28T04:32:53.057Z,102077.69
2022-07-28T04:35:24.086Z,102081.25
2022-07-28T04:37:55.126Z,102076.91
2022-07-28T04:40:23.389Z,102076.06
2022-07-28T04:42:51.619Z,102077.84
2022-07-28T04:45:19.880Z,102083.16
2022-07-28T04:47:49.426Z,102074.44
2022-07-28T04:50:21.382Z,102079.75
2022-07-28T04:52:50.144Z,102077.19
2022-07-28T04:55:19.470Z,102086.91
2022-07-28T04:57:48.176Z,102080.81
2022-07-28T05:00:17.230Z,102083.47
2022-07-28T05:02:48.003Z,102080.91
2022-07-28T05:05:16.252Z,102085.31
2022-07-28T05:07:45.825Z,102085.34
2022-07-28T05:10:14.018Z,102080.09
2022-07-28T05:12:43.005Z,102080.09
2022-07-28T05:15:11.800Z,102082.75
2022-07-28T05:17:40.122Z,102092.44
2022-07-28T05:20:09.401Z,102087.16
2022-07-28T05:22:47.221Z,102089.81
2022-07-28T05:25:20.599Z,102101.28
2022-07-28T05:27:49.868Z,102101.34
2022-07-28T05:30:22.315Z,102097.84
2022-07-28T05:32:51.087Z,102105.84
2022-07-28T05:35:19.364Z,102104.97
2022-07-28T05:37:48.869Z,102101.47
2022-07-28T05:40:18.339Z,102095.31
2022-07-28T05:42:47.796Z,102095.31
2022-07-28T05:45:17.788Z,102101.47
2022-07-28T05:47:48.588Z,102090.91
2022-07-28T05:50:18.171Z,102097.03
2022-07-28T05:52:48.615Z,102098.81
2022-07-28T05:55:17.696Z,102097.88
2022-07-28T05:57:46.741Z,102106.69
2022-07-28T06:00:17.540Z,102104.88
2022-07-28T06:02:49.393Z,102103.03
2022-07-28T06:05:19.525Z,102110.91
2022-07-28T06:07:50.963Z,102102.03
2022-07-28T06:10:21.274Z,102116.13
2022-07-28T06:12:51.267Z,102117.00
2022-07-28T06:15:22.351Z,102121.34
2022-07-28T06:17:52.438Z,102117.75
2022-07-28T06:20:21.853Z,102119.44
2022-07-28T06:22:55.979Z,102114.94
2022-07-28T06:25:26.736Z,102113.09
2022-07-28T06:27:57.267Z,102122.75
2022-07-28T06:30:25.952Z,102112.09
2022-07-28T06:32:54.492Z,102116.50
2022-07-28T06:35:23.198Z,102114.66
2022-07-28T06:37:55.105Z,102117.19
2022-07-28T06:40:23.675Z,102123.31
2022-07-28T06:42:52.582Z,102124.13
2022-07-28T06:45:21.911Z,102114.28
2022-07-28T06:47:50.637Z,102132.81
2022-07-28T06:50:24.535Z,102121.22
2022-07-28T06:52:56.706Z,102117.50
2022-07-28T06:55:25.257Z,102125.38
2022-07-28T06:57:54.309Z,102127.97
2022-07-28T07:00:22.718Z,102129.69
2022-07-28T07:02:50.952Z,102124.38
2022-07-28T07:05:19.105Z,102135.88
2022-07-28T07:07:47.328Z,102137.69
2022-07-28T07:10:16.854Z,102138.56
2022-07-28T07:12:45.008Z,102137.69
2022-07-28T07:15:13.653Z,102129.78
2022-07-28T07:17:42.058Z,102130.75
2022-07-28T07:20:17.105Z,102131.69
2022-07-28T07:22:48.084Z,102135.28
2022-07-28T07:25:19.857Z,102133.56
2022-07-28T07:27:48.530Z,102128.25
2022-07-28T07:30:18.084Z,102123.81
2022-07-28T07:32:46.503Z,102131.66
2022-07-28T07:35:14.707Z,102131.53
2022-07-28T07:37:42.898Z,102128.72
2022-07-28T07:40:11.855Z,102131.38
2022-07-28T07:42:41.359Z,102128.72
2022-07-28T07:45:11.134Z,102129.53
2022-07-28T07:47:39.369Z,102126.78
2022-07-28T07:50:11.361Z,102124.88
2022-07-28T07:52:39.552Z,102119.44
2022-07-28T07:55:09.311Z,102117.53
2022-07-28T07:57:37.498Z,102124.50
2022-07-28T08:00:08.926Z,102113.63
2022-07-28T08:02:57.238Z,102111.59
2022-07-28T08:05:34.811Z,102116.66
2022-07-28T08:08:05.809Z,102119.06
2022-07-28T08:10:34.460Z,102111.75
2022-07-28T08:13:03.178Z,102118.50
2022-07-28T08:15:32.896Z,102105.78
2022-07-28T08:18:01.139Z,102107.44
2022-07-28T08:20:29.917Z,102111.53
2022-07-28T08:22:59.369Z,102105.81
2022-07-28T08:25:27.725Z,102106.34
2022-07-28T08:27:55.875Z,102100.59
2022-07-28T08:30:27.449Z,102100.81
2022-07-28T08:33:02.809Z,102102.03
2022-07-28T08:35:34.109Z,102104.34
2022-07-28T08:38:04.684Z,102093.03
2022-07-28T08:40:33.443Z,102094.94
2022-07-28T08:43:09.981Z,102089.66
2022-07-28T08:45:40.129Z,102084.78
2022-07-28T08:48:14.349Z,102089.59
2022-07-28T08:50:45.252Z,102090.81
2022-07-28T08:53:16.007Z,102096.09
2022-07-28T08:55:45.834Z,102096.91
2022-07-28T08:58:14.535Z,102097.47
2022-07-28T09:00:43.277Z,102096.78
2022-07-28T09:03:14.221Z,102092.03
2022-07-28T09:05:44.863Z,102093.41
2022-07-28T09:08:13.879Z,102089.00
2022-07-28T09:10:44.598Z,102078.31
2022-07-28T09:13:13.337Z,102082.00
2022-07-28T09:15:41.973Z,102081.41
2022-07-28T09:18:10.144Z,102079.22
2022-07-28T09:20:41.109Z,102083.47
2022-07-28T09:23:42.243Z,102080.72
2022-07-28T09:26:11.453Z,102082.09
2022-07-28T09:28:52.667Z,102085.50
2022-07-28T09:31:22.557Z,102088.28
2022-07-28T09:34:03.484Z,102075.81
2022-07-28T09:36:40.874Z,102076.88
2022-07-28T09:39:09.605Z,102074.13
2022-07-28T09:41:55.243Z,102082.91
2022-07-28T09:44:26.515Z,102079.78
2022-07-28T09:46:55.095Z,102084.09
2022-07-28T09:49:42.073Z,102078.94
2022-07-28T09:52:13.114Z,102079.13
2022-07-28T09:55:00.616Z,102077.31
2022-07-28T09:57:30.911Z,102085.94
2022-07-28T10:00:02.284Z,102080.22
2022-07-28T10:02:32.502Z,102083.38
2022-07-28T10:05:01.789Z,102084.16
2022-07-28T10:07:33.749Z,102081.84
2022-07-28T10:10:04.727Z,102078.56
2022-07-28T10:12:35.887Z,102078.00
2022-07-28T10:15:35.341Z,102074.00
2022-07-28T10:18:04.499Z,102068.38
2022-07-28T10:20:34.346Z,102061.25
2022-07-28T10:23:06.326Z,102062.88
2022-07-28T10:25:36.037Z,102069.00
2022-07-28T10:28:05.527Z,102060.19
2022-07-28T10:30:41.231Z,102058.13
2022-07-28T10:33:17.220Z,102057.66
2022-07-28T10:35:55.150Z,102061.91
2022-07-28T10:38:29.655Z,102053.03
2022-07-28T10:41:02.977Z,102057.28
2022-07-28T10:43:31.905Z,102052.41
2022-07-28T10:46:06.264Z,102044.25
2022-07-28T10:48:38.734Z,102041.56
2022-07-28T10:51:07.306Z,102048.81
2022-07-28T10:53:44.833Z,102053.47
2022-07-28T10:56:24.157Z,102048.09
2022-07-28T10:59:05.485Z,102048.91
2022-07-28T11:01:48.443Z,102050.00
2022-07-28T11:04:55.419Z,102039.19
2022-07-28T11:07:23.715Z,102031.00
2022-07-28T11:09:54.077Z,102036.22
2022-07-28T11:12:46.962Z,102033.53
2022-07-28T11:15:33.013Z,102044.00
2022-07-28T11:18:09.291Z,102040.19
2022-07-28T11:21:09.399Z,102038.47
2022-07-28T11:23:56.463Z,102033.69
2022-07-28T11:26:38.513Z,102038.44
2022-07-28T11:29:23.409Z,102036.53
2022-07-28T11:31:59.544Z,102042.50
2022-07-28T11:34:28.111Z,102036.00
2022-07-28T11:37:05.252Z,102029.59
2022-07-28T11:39:42.892Z,102032.88
2022-07-28T11:42:32.207Z,102027.31
2022-07-28T11:45:37.784Z,102026.84
2022-07-28T11:48:15.455Z,102026.72
2022-07-28T11:50:44.586Z,102023.53
2022-07-28T11:53:12.755Z,102029.25
2022-07-28T11:55:49.237Z,102017.78
2022-07-28T11:58:27.655Z,102026.81
2022-07-28T12:01:13.296Z,102028.97
2022-07-28T12:03:49.499Z,102025.72
2022-07-28T12:06:28.997Z,102024.81
2022-07-28T12:09:00.028Z,102020.94
2022-07-28T12:11:32.136Z,102022.59
2022-07-28T12:14:03.370Z,102013.38
2022-07-28T12:16:35.328Z,102016.84
2022-07-28T12:19:05.348Z,102017.56
2022-07-28T12:21:46.263Z,102015.56
2022-07-28T12:24:19.119Z,102018.97
2022-07-28T12:26:50.271Z,102021.38
2022-07-28T12:29:20.692Z,102018.47
2022-07-28T12:31:59.135Z,102016.06
2022-07-28T12:34:29.631Z,102011.78
2022-07-28T12:37:02.027Z,102017.06
2022-07-28T12:39:32.401Z,102008.06
2022-07-28T12:42:06.230Z,101997.31
2022-07-28T12:44:42.034Z,101998.22
2022-07-28T12:47:13.120Z,101987.22
2022-07-28T12:49:43.801Z,101989.53
2022-07-28T12:52:21.570Z,101990.13
2022-07-28T12:54:54.317Z,101992.91
2022-07-28T12:57:48.122Z,101994.16
2022-07-28T13:00:22.302Z,102005.38
2022-07-28T13:02:52.552Z,101991.25
2022-07-28T13:05:57.341Z,101989.72
2022-07-28T13:08:29.566Z,101993.63
2022-07-28T13:10:58.938Z,101995.16
2022-07-28T13:13:31.383Z,101993.00
2022-07-28T13:16:14.895Z,101994.75
2022-07-28T13:18:44.044Z,101994.75
2022-07-28T13:21:12.248Z,101995.09
2022-07-28T13:23:40.772Z,101992.06
2022-07-28T13:26:09.234Z,101988.56
2022-07-28T13:28:37.430Z,101993.94
2022-07-28T13:31:05.686Z,101986.94
2022-07-28T13:33:35.302Z,101984.44
2022-07-28T13:36:03.547Z,101987.44
2022-07-28T13:38:32.960Z,101985.28
2022-07-28T13:41:03.868Z,101975.19
2022-07-28T13:43:36.249Z,101975.63
2022-07-28T13:46:05.370Z,101975.97
2022-07-28T13:48:40.343Z,101974.44
2022-07-28T13:51:26.323Z,101973.31
2022-07-28T13:53:58.374Z,101968.03
2022-07-28T13:56:26.592Z,101968.94
2022-07-28T13:58:54.703Z,101964.59
2022-07-28T14:01:23.570Z,101965.00
2022-07-28T14:03:58.205Z,101961.28
2022-07-28T14:06:27.204Z,101952.75
2022-07-28T14:08:55.833Z,101964.22
2022-07-28T14:11:25.109Z,101954.16
2022-07-28T14:13:53.663Z,101947.31
2022-07-28T14:16:24.975Z,101964.88
2022-07-28T14:18:53.173Z,101954.47
2022-07-28T14:21:22.663Z,101950.44
2022-07-28T14:23:50.900Z,101943.56
2022-07-28T14:26:35.531Z,101955.13
2022-07-28T14:29:04.794Z,101952.94
2022-07-28T14:31:39.944Z,101955.09
2022-07-28T14:34:10.199Z,101949.69
2022-07-28T14:36:39.782Z,101945.22
2022-07-28T14:39:12.471Z,101949.81
2022-07-28T14:41:42.659Z,101941.25
2022-07-28T14:44:14.609Z,101939.72
2022-07-28T14:46:45.963Z,101929.56
2022-07-28T14:49:14.264Z,101936.59
2022-07-28T14:51:45.045Z,101928.94
2022-07-28T14:54:13.638Z,101931.25
2022-07-28T14:56:43.991Z,101934.50
2022-07-28T14:59:12.163Z,101932.84
2022-07-28T15:01:43.361Z,101925.56
2022-07-28T15:04:13.774Z,101925.91
2022-07-28T15:06:43.835Z,101933.75
2022-07-28T15:09:12.193Z,101916.97
2022-07-28T15:11:41.923Z,101921.16
2022-07-28T15:14:10.075Z,101922.88
2022-07-28T15:16:38.457Z,101918.53
2022-07-28T15:19:08.320Z,101921.63
2022-07-28T15:21:39.706Z,101925.47
2022-07-28T15:24:11.084Z,101914.66
2022-07-28T15:26:39.459Z,101921.72
2022-07-28T15:29:08.259Z,101917.44
2022-07-28T15:31:37.678Z,101924.97
2022-07-28T15:34:09.569Z,101914.31
2022-07-28T15:36:40.242Z,101917.72
2022-07-28T15:39:13.874Z,101911.41
2022-07-28T15:41:43.017Z,101913.25
2022-07-28T15:44:13.777Z,101907.88
2022-07-28T15:46:43.120Z,101896.03
2022-07-28T15:49:16.877Z,101903.81
2022-07-28T15:51:45.100Z,101903.13
2022-07-28T15:54:15.027Z,101893.75
2022-07-28T15:56:43.406Z,101900.06
2022-07-28T15:59:11.508Z,101899.00
2022-07-28T16:01:45.190Z,101905.91
2022-07-28T16:04:14.242Z,101893.47
2022-07-28T16:07:00.662Z,101893.59
2022-07-28T16:09:45.791Z,101898.28
2022-07-28T16:12:14.964Z,101890.50
2022-07-28T16:14:46.291Z,101876.63
2022-07-28T16:17:14.722Z,101877.84
2022-07-28T16:19:49.454Z,101879.53
2022-07-28T16:22:18.772Z,101887.75
2022-07-28T16:24:48.432Z,101883.38
2022-07-28T16:27:16.947Z,101882.78
2022-07-28T16:29:45.751Z,101885.09
2022-07-28T16:32:17.142Z,101886.13
2022-07-28T16:34:45.744Z,101888.09
2022-07-28T16:37:19.034Z,101883.59
2022-07-28T16:39:49.333Z,101885.97
2022-07-28T16:42:17.990Z,101877.31
2022-07-28T16:44:47.418Z,101882.22
2022-07-28T16:47:16.011Z,101883.03
2022-07-28T16:49:46.239Z,101881.75
2022-07-28T16:52:15.079Z,101875.84
2022-07-28T16:54:43.787Z,101882.50
2022-07-28T16:57:13.588Z,101882.66
2022-07-28T16:59:48.725Z,101886.69
2022-07-28T17:02:19.109Z,101884.44
2022-07-28T17:04:47.817Z,101881.00
2022-07-28T17:07:16.229Z,101887.19
2022-07-28T17:09:46.897Z,101882.75
2022-07-28T17:12:16.520Z,101879.72
2022-07-28T17:14:45.969Z,101887.69
2022-07-28T17:17:14.143Z,101884.91
2022-07-28T17:19:46.787Z,101894.28
2022-07-28T17:22:15.784Z,101884.06
2022-07-28T17:24:48.319Z,101890.34
2022-07-28T17:27:37.844Z,101889.94
2022-07-28T17:30:07.515Z,101884.25
2022-07-28T17:32:35.761Z,101881.44
2022-07-28T17:35:04.127Z,101879.06
2022-07-28T17:37:32.321Z,101884.34
2022-07-28T17:40:01.016Z,101883.50
2022-07-28T17:42:35.177Z,101884.06
2022-07-28T17:45:03.336Z,101880.84
2022-07-28T17:47:36.377Z,101874.16
2022-07-28T17:50:09.271Z,101875.13
2022-07-28T17:52:37.435Z,101874.06
2022-07-28T17:55:26.581Z,101865.66
2022-07-28T17:58:10.048Z,101865.50
2022-07-28T18:00:38.379Z,101870.34
2022-07-28T18:03:11.456Z,101866.66
2022-07-28T18:05:40.510Z,101872.94
2022-07-28T18:08:09.498Z,101868.97
2022-07-28T18:10:38.528Z,101874.25
2022-07-28T18:13:13.947Z,101870.72
2022-07-28T18:15:43.004Z,101869.69
2022-07-28T18:18:14.540Z,101864.66
2022-07-28T18:20:42.856Z,101872.41
2022-07-28T18:23:14.476Z,101868.94
2022-07-28T18:25:45.219Z,101864.97
2022-07-28T18:28:19.381Z,101866.78
2022-07-28T18:30:47.816Z,101871.00
2022-07-28T18:33:17.588Z,101862.34
2022-07-28T18:35:46.856Z,101872.06
2022-07-28T18:38:15.192Z,101872.72
2022-07-28T18:40:43.718Z,101868.72
2022-07-28T18:43:16.018Z,101861.03
2022-07-28T18:45:44.407Z,101862.31
2022-07-28T18:48:15.028Z,101865.28
2022-07-28T18:50:46.176Z,101868.13
2022-07-28T18:53:28.295Z,101864.78
2022-07-28T18:55:56.451Z,101865.47
2022-07-28T18:58:26.358Z,101871.53
2022-07-28T19:00:54.662Z,101866.97
2022-07-28T19:03:22.848Z,101872.19
2022-07-28T19:05:52.309Z,101875.50
2022-07-28T19:08:20.525Z,101873.53
2022-07-28T19:10:48.695Z,101883.81
2022-07-28T19:13:16.899Z,101877.16
2022-07-28T19:15:48.768Z,101879.41
2022-07-28T19:18:19.853Z,101882.50
2022-07-28T19:20:48.089Z,101880.22
2022-07-28T19:23:16.221Z,101878.78
2022-07-28T19:25:44.428Z,101888.91
2022-07-28T19:28:12.644Z,101888.25
2022-07-28T19:30:43.713Z,101886.75
2022-07-28T19:33:19.756Z,101887.91
2022-07-28T19:35:48.087Z,101894.34
2022-07-28T19:38:19.295Z,101894.56
2022-07-28T19:40:49.280Z,101899.22
2022-07-28T19:43:17.500Z,101904.69
2022-07-28T19:45:47.565Z,101909.31
2022-07-28T19:48:22.288Z,101907.69
2022-07-28T19:50:52.360Z,101912.22
2022-07-28T19:53:25.329Z,101915.03
2022-07-28T19:56:09.106Z,101920.50
2022-07-28T19:58:37.704Z,101929.47
2022-07-28T20:01:09.740Z,101931.34
2022-07-28T20:04:01.825Z,101926.13
2022-07-28T20:06:27.441Z,101927.13
2022-07-28T20:08:56.930Z,101928.13
2022-07-28T20:11:25.106Z,101925.59
2022-07-28T20:13:53.516Z,101927.41
2022-07-28T20:16:22.745Z,101930.19
2022-07-28T20:18:53.044Z,101925.84
2022-07-28T20:21:24.027Z,101928.56
2022-07-28T20:23:55.301Z,101933.94
2022-07-28T20:26:26.099Z,101932.22
2022-07-28T20:28:54.810Z,101941.16
2022-07-28T20:31:23.100Z,101938.56
2022-07-28T20:33:53.948Z,101939.50
2022-07-28T20:36:29.636Z,101935.13
2022-07-28T20:38:58.192Z,101939.59
2022-07-28T20:41:31.399Z,101938.78
2022-07-28T20:44:27.387Z,101945.03
2022-07-28T20:46:48.228Z,101943.34
2022-07-28T20:49:20.064Z,101948.69
2022-07-28T20:51:50.879Z,101954.03
2022-07-28T20:54:19.739Z,101955.88
2022-07-28T20:56:48.415Z,101952.38
2022-07-28T20:59:16.672Z,101961.25
2022-07-28T21:01:45.061Z,101958.63
2022-07-28T21:04:15.551Z,101954.28
2022-07-28T21:06:50.151Z,101966.63
2022-07-28T21:09:20.516Z,101960.47
2022-07-28T21:11:48.671Z,101962.28
2022-07-28T21:14:17.351Z,101971.09
2022-07-28T21:16:45.667Z,101964.94
2022-07-28T21:19:13.958Z,101965.81
2022-07-28T21:21:42.168Z,101961.41
2022-07-28T21:24:13.591Z,101964.03
2022-07-28T21:26:43.046Z,101967.59
2022-07-28T21:31:58.493Z,101964.91
2022-07-28T21:34:34.325Z,101968.47
2022-07-28T21:37:03.013Z,101966.69
2022-07-28T21:39:33.467Z,101969.31
2022-07-28T21:42:04.703Z,101971.09
2022-07-28T21:44:35.810Z,101971.97
2022-07-28T21:47:04.080Z,101972.91
2022-07-28T21:49:32.495Z,101973.75
2022-07-28T21:52:00.935Z,101972.91
2022-07-28T21:54:34.143Z,101977.31
2022-07-28T21:57:02.323Z,101976.44
2022-07-28T21:59:30.493Z,101968.50
2022-07-28T22:01:58.698Z,101971.16
2022-07-28T22:04:28.639Z,101975.59
2022-07-28T22:06:56.842Z,101977.38
2022-07-28T22:09:25.098Z,101974.75
2022-07-28T22:11:55.062Z,101973.84
2022-07-28T22:14:25.495Z,101979.16
2022-07-28T22:16:53.775Z,101966.81
2022-07-28T22:19:21.972Z,101973.00
2022-07-28T22:21:50.102Z,101971.28
2022-07-28T22:24:22.725Z,101966.88
2022-07-28T22:26:51.381Z,101978.38
2022-07-28T22:29:20.906Z,101971.34
2022-07-28T22:31:49.101Z,101971.34
2022-07-28T22:34:17.700Z,101970.50
2022-07-28T22:36:46.036Z,101970.53
2022-07-28T22:39:14.765Z,101974.09
2022-07-28T22:41:42.911Z,101969.69
2022-07-28T22:44:15.343Z,101965.31
2022-07-28T22:46:46.147Z,101970.63
2022-07-28T22:49:14.446Z,101972.41
2022-07-28T22:51:46.481Z,101970.66
2022-07-28T22:54:17.440Z,101975.97
2022-07-28T22:56:46.122Z,101979.50
2022-07-28T22:59:15.748Z,101976.88
2022-07-28T23:01:49.919Z,101980.34
2022-07-28T23:04:18.312Z,101973.31
2022-07-28T23:06:46.910Z,101965.38
2022-07-28T23:09:15.131Z,101962.72
2022-07-28T23:11:55.913Z,101967.13
2022-07-28T23:14:24.609Z,101975.06
2022-07-28T23:16:55.163Z,101960.03
2022-07-28T23:19:23.374Z,101968.88
2022-07-28T23:21:51.603Z,101967.09
2022-07-28T23:24:19.911Z,101957.38
2022-07-28T23:26:48.475Z,101954.72
2022-07-28T23:29:16.882Z,101964.44
2022-07-28T23:31:45.144Z,101952.94
2022-07-28T23:34:15.279Z,101953.81
2022-07-28T23:36:44.335Z,101961.75
2022-07-28T23:39:12.970Z,101955.59
2022-07-28T23:41:41.209Z,101963.50
2022-07-28T23:44:09.511Z,101959.09
2022-07-28T23:46:37.754Z,101955.56
2022-07-28T23:49:06.557Z,101965.28
2022-07-28T23:51:47.788Z,101965.25
2022-07-28T23:54:17.350Z,101959.06
2022-07-28T23:56:46.161Z,101962.59
2022-07-28T23:59:14.926Z,101959.94
